Time;durP1;ratioP1;P1;durP2;ratioP2;P2;SDS_P1;SDS_P2;PMS_P1;PMS_P2;Temp;Humidity;BMP_temperature;BMP_pressure;BME280_temperature;BME280_humidity;BME280_pressure;Samples;Min_cycle;Max_cycle;Signal;HPM_P1;HPM_P2
2022/02/04 00:06:02;;;;;;;30.30;22.00;;;8.50;99.90;;;;;;5029057;28;20808;-35
2022/02/04 00:24:35;;;;;;;34.00;24.83;;;8.50;99.90;;;;;;5027300;28;20037;-35
2022/02/04 00:27:08;;;;;;;32.28;25.50;;;8.50;99.90;;;;;;5028003;28;20026;-35
2022/02/04 00:29:45;;;;;;;;;;;8.40;99.90;;;;;;5028596;28;20061;-34
2022/02/04 00:32:11;;;;;;;33.15;23.60;;;8.50;99.90;;;;;;5027735;28;19916;-36
2022/02/04 00:34:48;;;;;;;30.30;23.75;;;8.50;99.90;;;;;;5027944;28;20045;-35
2022/02/04 00:37:26;;;;;;;30.65;24.20;;;8.50;99.90;;;;;;5023568;28;20072;-34
2022/02/04 00:39:58;;;;;;;29.05;23.48;;;8.50;99.90;;;;;;5028337;28;20655;-36
2022/02/04 00:42:24;;;;;;;30.67;24.17;;;8.50;99.90;;;;;;5024487;28;20076;-34
2022/02/04 00:44:57;;;;;;;27.10;21.55;;;8.50;99.90;;;;;;5027507;28;20045;-35
2022/02/04 00:47:26;;;;;;;33.00;24.88;;;8.50;99.90;;;;;;5027005;28;20104;-35
2022/02/04 00:50:04;;;;;;;30.00;22.67;;;8.50;99.90;;;;;;5027838;28;20026;-34
2022/02/04 00:52:59;;;;;;;32.30;24.65;;;8.50;99.90;;;;;;5026807;28;20032;-35
2022/02/04 00:55:28;;;;;;;27.60;21.70;;;8.50;99.90;;;;;;5027461;28;20044;-34
2022/02/04 01:27:33;;;;;;;25.40;18.95;;;8.50;99.90;;;;;;5033387;28;20036;-36
2022/02/04 01:32:24;;;;;;;28.17;21.83;;;8.60;99.90;;;;;;5033431;28;20041;-35
2022/02/04 01:34:50;;;;;;;27.70;21.92;;;8.60;99.90;;;;;;5033741;28;20495;-33
2022/02/04 01:37:15;;;;;;;30.73;22.10;;;8.50;99.90;;;;;;5033125;28;20026;-34
2022/02/04 01:39:41;;;;;;;25.35;18.75;;;8.50;99.90;;;;;;5034094;28;20048;-35
2022/02/04 01:42:07;;;;;;;25.77;19.25;;;8.60;99.90;;;;;;5032991;28;20198;-35
2022/02/04 01:44:33;;;;;;;28.75;20.48;;;8.60;99.90;;;;;;5034214;28;20091;-35
2022/02/04 01:46:58;;;;;;;29.23;20.67;;;8.60;99.90;;;;;;5033888;28;20423;-34
2022/02/04 01:49:29;;;;;;;22.67;17.98;;;8.60;99.90;;;;;;5032551;28;20071;-35
2022/02/04 01:51:55;;;;;;;27.15;21.73;;;8.60;99.90;;;;;;5034542;28;20034;-36
2022/02/04 01:54:22;;;;;;;29.27;21.80;;;8.60;99.90;;;;;;5032580;28;20030;-35
2022/02/04 01:56:47;;;;;;;27.05;19.95;;;8.50;99.90;;;;;;5033897;28;20438;-33
2022/02/04 01:59:13;;;;;;;25.33;19.52;;;8.50;99.90;;;;;;5033986;28;20476;-35
2022/02/04 02:01:39;;;;;;;25.00;20.40;;;8.50;99.90;;;;;;5032796;28;20042;-35
2022/02/04 02:04:06;;;;;;;25.02;19.75;;;8.50;99.90;;;;;;5033912;28;20040;-34
2022/02/04 02:06:53;;;;;;;23.90;19.13;;;8.50;99.90;;;;;;5033799;28;20035;-35
2022/02/04 02:09:23;;;;;;;27.17;20.65;;;8.50;99.90;;;;;;5032519;28;20037;-34
2022/02/04 02:11:53;;;;;;;27.42;20.92;;;8.50;99.90;;;;;;5033800;28;20116;-34
2022/02/04 02:14:21;;;;;;;27.92;20.27;;;8.40;99.90;;;;;;5033276;28;20045;-35
2022/02/04 02:32:59;;;;;;;25.63;19.00;;;8.40;99.90;;;;;;5033325;28;20037;-36
2022/02/04 02:51:59;;;;;;;24.67;17.25;;;8.50;99.90;;;;;;5028798;28;20033;-34
2022/02/04 02:59:26;;;;;;;20.63;16.50;;;8.40;99.90;;;;;;5028727;28;20030;-35
2022/02/04 03:01:52;;;;;;;19.02;15.60;;;8.40;99.90;;;;;;5028908;28;20045;-33
2022/02/04 03:04:18;;;;;;;19.45;14.63;;;8.40;99.90;;;;;;5029067;28;20381;-33
2022/02/04 03:06:45;;;;;;;17.65;14.27;;;8.50;99.90;;;;;;5028936;28;20022;-35
2022/02/04 03:09:13;;;;;;;21.00;14.48;;;8.50;99.90;;;;;;5030269;28;20045;-35
2022/02/04 03:11:39;;;;;;;18.80;14.55;;;8.40;99.90;;;;;;5028800;28;20613;-33
2022/02/04 03:14:04;;;;;;;16.17;13.77;;;8.50;99.90;;;;;;5029309;28;21065;-34
2022/02/04 03:16:30;;;;;;;18.70;14.35;;;8.50;99.90;;;;;;5029297;28;20112;-35
2022/02/04 03:18:57;;;;;;;19.75;14.60;;;8.50;99.90;;;;;;5029152;28;20021;-33
2022/02/04 03:21:46;;;;;;;17.83;14.15;;;8.50;99.90;;;;;;5028989;28;20117;-34
2022/02/04 03:24:13;;;;;;;20.50;15.23;;;8.50;99.90;;;;;;5028547;28;20053;-33
2022/02/04 03:29:18;;;;;;;18.10;13.95;;;8.50;99.90;;;;;;5028561;28;20566;-33
2022/02/04 03:31:49;;;;;;;18.80;14.35;;;8.50;99.90;;;;;;5029056;28;20450;-34
2022/02/04 03:34:14;;;;;;;18.67;13.57;;;8.50;99.90;;;;;;5028563;28;20072;-34
2022/02/04 03:36:44;;;;;;;18.52;13.68;;;8.50;99.90;;;;;;5029053;28;20025;-35
2022/02/04 03:39:10;;;;;;;17.42;12.70;;;8.50;99.90;;;;;;5028663;28;20476;-33
2022/02/04 03:41:35;;;;;;;19.20;13.55;;;8.50;99.90;;;;;;5028423;28;20028;-35
2022/02/04 03:44:01;;;;;;;16.02;11.98;;;8.50;99.90;;;;;;5029188;28;20072;-36
2022/02/04 03:46:27;;;;;;;16.95;11.82;;;8.50;99.90;;;;;;5028153;28;20454;-34
2022/02/04 03:48:52;;;;;;;14.45;11.73;;;8.50;99.90;;;;;;5028590;28;20030;-36
2022/02/04 03:51:18;;;;;;;17.40;12.30;;;8.50;99.90;;;;;;5028174;28;20519;-34
2022/02/04 03:53:43;;;;;;;15.13;10.82;;;8.50;99.90;;;;;;5028716;28;20056;-35
2022/02/04 03:56:09;;;;;;;16.50;12.30;;;8.50;99.90;;;;;;5027739;28;20044;-35
2022/02/04 03:58:37;;;;;;;15.85;12.30;;;8.50;99.90;;;;;;5028227;28;20033;-34
2022/02/04 04:01:04;;;;;;;15.00;11.32;;;8.50;99.90;;;;;;5027990;28;20400;-34
2022/02/04 04:03:30;;;;;;;13.77;10.05;;;8.60;99.90;;;;;;5027305;28;20076;-34
2022/02/04 04:05:55;;;;;;;13.35;10.60;;;8.50;99.90;;;;;;5028822;28;20029;-34
2022/02/04 04:08:21;;;;;;;15.13;10.88;;;8.50;99.90;;;;;;5027389;28;20025;-33
2022/02/04 04:10:49;;;;;;;12.75;10.65;;;8.60;99.90;;;;;;5028825;28;20025;-34
2022/02/04 04:13:15;;;;;;;13.05;10.70;;;8.60;99.90;;;;;;5028046;28;20358;-35
2022/02/04 04:15:41;;;;;;;13.43;10.52;;;8.60;99.90;;;;;;5027599;28;20075;-34
2022/02/04 04:18:11;;;;;;;12.63;9.77;;;8.60;99.90;;;;;;5028192;28;20092;-34
2022/02/04 04:20:37;;;;;;;15.63;10.55;;;8.60;99.90;;;;;;5028111;28;20030;-33
2022/02/04 04:23:02;;;;;;;15.38;10.70;;;8.60;99.90;;;;;;5027872;28;20499;-34
2022/02/04 04:25:29;;;;;;;11.70;9.60;;;8.60;99.90;;;;;;5027597;28;20488;-34
2022/02/04 04:27:55;;;;;;;13.27;10.07;;;8.60;99.90;;;;;;5028160;28;20040;-34
2022/02/04 04:30:23;;;;;;;10.80;9.10;;;8.60;99.90;;;;;;5027271;28;20026;-33
2022/02/04 04:32:54;;;;;;;12.52;9.57;;;8.60;99.90;;;;;;5028011;28;20022;-34
2022/02/04 04:35:23;;;;;;;13.65;8.90;;;8.60;99.90;;;;;;5027746;28;20033;-34
2022/02/04 04:37:59;;;;;;;9.70;8.35;;;8.60;99.90;;;;;;5027775;28;20056;-35
2022/02/04 04:43:16;;;;;;;11.80;9.80;;;8.60;99.90;;;;;;5027430;28;20053;-35
2022/02/04 04:46:14;;;;;;;11.43;8.85;;;8.60;99.90;;;;;;5027866;28;20591;-35
2022/02/04 05:29:19;;;;;;;12.05;8.20;;;8.60;99.90;;;;;;5026838;28;20029;-35
2022/02/04 05:31:45;;;;;;;10.73;8.10;;;8.60;99.90;;;;;;5027517;28;20103;-34
2022/02/04 05:34:19;;;;;;;8.88;7.20;;;8.50;99.90;;;;;;5027141;28;20345;-34
2022/02/04 05:36:47;;;;;;;10.30;7.63;;;8.50;99.90;;;;;;5027575;28;20049;-33
2022/02/04 05:39:17;;;;;;;9.82;8.05;;;8.50;99.90;;;;;;5027359;28;20029;-35
2022/02/04 05:41:47;;;;;;;9.70;7.40;;;8.50;99.90;;;;;;5026369;28;20029;-35
2022/02/04 05:44:14;;;;;;;10.75;6.63;;;8.50;99.90;;;;;;5007552;28;20491;-35
2022/02/04 05:46:58;;;;;;;9.75;7.45;;;8.50;99.90;;;;;;5021422;28;20774;-34
2022/02/04 05:49:26;;;;;;;9.23;7.10;;;8.50;99.90;;;;;;5007741;28;20018;-34
2022/02/04 05:52:01;;;;;;;8.63;6.20;;;8.50;99.90;;;;;;5022622;28;20443;-35
2022/02/04 05:57:24;;;;;;;9.25;6.57;;;8.50;99.90;;;;;;5030774;28;20087;-34
2022/02/04 06:03:23;;;;;;;7.30;6.03;;;8.50;99.90;;;;;;4995292;28;20133;-35
2022/02/04 06:14:55;;;;;;;9.00;5.95;;;8.50;99.90;;;;;;5030829;28;20061;-35
2022/02/04 06:22:29;;;;;;;6.50;5.45;;;8.60;99.90;;;;;;4967204;28;20730;-34
2022/02/04 06:24:56;;;;;;;7.85;5.55;;;8.50;99.90;;;;;;5018138;28;20186;-35
2022/02/04 06:27:24;;;;;;;7.32;5.80;;;8.50;99.90;;;;;;5029610;28;20096;-36
2022/02/04 06:29:51;;;;;;;4.75;4.25;;;8.50;99.90;;;;;;5029345;28;20483;-34
2022/02/04 06:32:18;;;;;;;6.90;4.68;;;8.60;99.90;;;;;;5029783;28;20152;-35
2022/02/04 06:34:45;;;;;;;8.82;5.25;;;8.60;99.90;;;;;;5030740;28;20476;-34
2022/02/04 06:37:10;;;;;;;6.63;5.20;;;8.60;99.90;;;;;;5029152;28;20080;-35
2022/02/04 06:39:36;;;;;;;6.93;5.18;;;8.60;99.90;;;;;;5030189;28;20057;-34
2022/02/04 06:42:03;;;;;;;4.88;3.97;;;8.60;99.90;;;;;;5030079;28;20071;-35
2022/02/04 06:44:31;;;;;;;5.75;4.78;;;8.60;99.90;;;;;;5028496;28;20029;-33
2022/02/04 06:46:57;;;;;;;6.30;4.35;;;8.60;99.90;;;;;;5030656;28;20022;-35
2022/02/04 06:49:23;;;;;;;5.82;4.78;;;8.60;99.90;;;;;;5029153;28;20443;-35
2022/02/04 06:51:48;;;;;;;5.15;4.57;;;8.60;99.90;;;;;;5028936;28;20025;-34
2022/02/04 06:54:14;;;;;;;8.50;5.10;;;8.60;99.90;;;;;;5028908;28;20029;-36
2022/02/04 06:56:39;;;;;;;5.05;3.97;;;8.60;99.90;;;;;;5027829;28;20022;-34
2022/02/04 06:59:05;;;;;;;6.07;4.40;;;8.60;99.90;;;;;;5025187;28;20079;-35
2022/02/04 07:01:33;;;;;;;8.35;5.20;;;8.60;99.90;;;;;;5028622;28;20769;-35
2022/02/04 07:04:03;;;;;;;5.03;4.22;;;8.60;99.90;;;;;;5026713;28;20037;-35
2022/02/04 07:06:30;;;;;;;5.05;3.88;;;8.60;99.90;;;;;;5028476;28;20491;-36
2022/02/04 07:14:13;;;;;;;7.72;4.85;;;8.60;99.90;;;;;;5028866;28;20034;-35
2022/02/04 07:22:07;;;;;;;5.25;4.70;;;8.70;99.90;;;;;;5029064;28;20575;-35
2022/02/04 07:24:33;;;;;;;6.50;5.20;;;8.70;99.90;;;;;;5028082;28;20029;-35
2022/02/04 07:26:59;;;;;;;5.50;4.93;;;8.70;99.90;;;;;;5028314;28;20779;-32
2022/02/04 07:29:24;;;;;;;5.82;4.90;;;8.80;99.90;;;;;;5027687;28;20079;-34
2022/02/04 07:31:53;;;;;;;6.30;5.70;;;8.80;99.90;;;;;;5029148;28;20032;-34
2022/02/04 07:34:38;;;;;;;6.07;5.40;;;8.80;99.90;;;;;;5029435;28;20017;-34
2022/02/04 07:42:33;;;;;;;7.18;5.70;;;8.80;99.90;;;;;;5028883;28;20098;-34
2022/02/04 07:44:59;;;;;;;6.00;5.40;;;8.80;99.90;;;;;;5028204;28;20033;-33
2022/02/04 07:47:25;;;;;;;5.60;5.05;;;8.80;99.90;;;;;;5028082;28;20042;-35
2022/02/04 07:49:50;;;;;;;5.25;4.63;;;8.80;99.90;;;;;;5028641;28;20036;-35
2022/02/04 07:52:16;;;;;;;5.78;4.65;;;8.80;99.90;;;;;;5028118;28;20026;-35
2022/02/04 07:54:42;;;;;;;5.32;4.82;;;8.80;99.90;;;;;;5043458;28;20021;-36
2022/02/04 07:57:08;;;;;;;5.93;4.95;;;8.80;99.90;;;;;;5028755;28;20520;-34
2022/02/04 07:59:33;;;;;;;7.88;4.97;;;8.80;99.90;;;;;;5027977;28;20543;-34
2022/02/04 08:01:59;;;;;;;5.28;4.10;;;8.80;99.90;;;;;;5027565;28;20164;-35
2022/02/04 08:04:29;;;;;;;5.32;3.97;;;8.80;99.90;;;;;;5028730;28;20052;-35
2022/02/04 08:07:01;;;;;;;4.80;4.22;;;8.80;99.90;;;;;;5028110;28;20027;-36
2022/02/04 08:09:48;;;;;;;6.57;4.57;;;8.90;99.90;;;;;;5037019;28;20076;-37
2022/02/04 08:15:05;;;;;;;5.07;4.57;;;8.90;99.90;;;;;;5008201;28;20076;-34
2022/02/04 08:18:05;;;;;;;5.53;4.95;;;8.80;99.90;;;;;;5023891;28;20384;-34
2022/02/04 08:20:58;;;;;;;5.53;4.40;;;8.80;99.90;;;;;;5026951;28;20025;-35
2022/02/04 08:26:13;;;;;;;6.97;6.28;;;8.80;99.90;;;;;;5028330;28;20447;-35
2022/02/04 08:28:58;;;;;;;7.18;5.60;;;8.90;99.90;;;;;;5019702;28;20057;-34
2022/02/04 08:31:44;;;;;;;6.93;5.60;;;8.90;99.90;;;;;;5027646;28;20108;-34
2022/02/04 08:34:30;;;;;;;6.63;5.95;;;8.90;99.90;;;;;;5028172;28;20116;-34
2022/02/04 08:46:36;;;;;;;6.65;5.80;;;8.90;99.90;;;;;;5028470;28;20041;-34
2022/02/04 08:48:13;;;;;;;7.97;6.57;;;8.90;99.90;;;;;;5028190;28;20036;-35
2022/02/04 08:55:55;;;;;;;7.95;7.15;;;8.90;99.90;;;;;;5027919;28;20056;-34
2022/02/04 08:58:35;;;;;;;9.63;7.45;;;8.90;99.90;;;;;;5026837;28;20021;-34
2022/02/04 09:01:12;;;;;;;7.82;6.72;;;8.90;99.90;;;;;;5027693;28;20508;-35
2022/02/04 09:06:27;;;;;;;7.70;6.90;;;9.00;99.90;;;;;;5028210;28;20025;-35
2022/02/04 09:08:56;;;;;;;16.92;12.40;;;9.00;99.90;;;;;;5027489;28;20064;-34
2022/02/04 09:12:05;;;;;;;12.82;8.68;;;9.10;99.90;;;;;;5026590;28;20026;-35
2022/02/04 09:24:44;;;;;;;9.68;6.70;;;9.20;99.90;;;;;;5026543;28;20038;-34
2022/02/04 09:27:10;;;;;;;7.30;6.57;;;9.20;99.90;;;;;;5028725;28;20033;-35
2022/02/04 09:29:35;;;;;;;6.55;5.90;;;9.20;99.90;;;;;;5029655;28;20079;-34
2022/02/04 09:32:01;;;;;;;8.43;7.00;;;9.30;99.90;;;;;;5030317;28;20033;-35
2022/02/04 09:34:26;;;;;;;6.72;6.03;;;9.30;99.90;;;;;;5030827;28;20117;-34
2022/02/04 09:36:52;;;;;;;8.95;6.45;;;9.20;99.90;;;;;;5031384;28;20144;-34
2022/02/04 09:39:17;;;;;;;6.75;6.15;;;9.20;99.90;;;;;;5029848;28;20051;-34
2022/02/04 09:41:43;;;;;;;6.30;5.70;;;9.10;99.90;;;;;;5031627;28;20484;-35
2022/02/04 09:44:08;;;;;;;6.45;5.72;;;9.10;99.90;;;;;;5030865;28;20032;-34
2022/02/04 09:46:35;;;;;;;6.72;5.68;;;9.10;99.90;;;;;;5029836;28;20540;-34
2022/02/04 09:49:08;;;;;;;6.70;6.10;;;9.10;99.90;;;;;;5031668;28;20100;-34
2022/02/04 10:12:03;;;;;;;7.68;6.95;;;9.30;99.90;;;;;;5028546;28;20116;-35
2022/02/04 10:14:36;;;;;;;6.65;6.05;;;9.30;99.90;;;;;;5029890;28;20131;-35
2022/02/04 10:17:17;;;;;;;7.30;6.57;;;9.30;99.90;;;;;;5020595;28;20047;-34
2022/02/04 10:22:17;;;;;;;6.18;5.60;;;9.50;99.90;;;;;;5029617;28;20037;-35
2022/02/04 10:24:43;;;;;;;6.00;5.50;;;9.50;99.90;;;;;;5030572;28;20439;-33
2022/02/04 10:27:13;;;;;;;5.70;5.13;;;9.60;99.90;;;;;;5030290;28;20476;-35
2022/02/04 10:29:40;;;;;;;6.90;5.35;;;9.60;99.90;;;;;;5029917;28;20075;-33
2022/02/04 10:32:06;;;;;;;5.20;4.70;;;9.60;99.90;;;;;;5030186;28;20014;-35
2022/02/04 10:34:37;;;;;;;4.53;4.13;;;9.70;99.90;;;;;;5030113;28;20037;-35
2022/02/04 10:37:16;;;;;;;4.15;3.42;;;9.70;99.90;;;;;;5028779;28;20063;-35
2022/02/04 10:44:58;;;;;;;9.32;5.82;;;9.60;99.90;;;;;;5030248;28;20069;-35
2022/02/04 10:51:05;;;;;;;4.53;4.13;;;9.50;99.90;;;;;;5028940;28;20451;-33
2022/02/04 11:04:45;;;;;;;4.18;3.88;;;9.70;99.90;;;;;;5028427;28;20048;-34
2022/02/04 11:07:48;;;;;;;4.28;3.97;;;9.80;99.90;;;;;;5029240;28;20526;-34
2022/02/04 11:54:53;;;;;;;3.33;3.13;;;10.40;99.90;;;;;;5023491;28;20037;-35
2022/02/04 11:57:40;;;;;;;3.90;3.50;;;10.40;99.90;;;;;;5004008;28;20032;-36
2022/02/04 12:00:20;;;;;;;3.28;2.97;;;10.50;99.90;;;;;;4861850;28;20044;-36
2022/02/04 12:02:50;;;;;;;3.10;2.88;;;10.50;99.90;;;;;;4945764;28;20544;-36
2022/02/04 12:05:18;;;;;;;4.15;3.05;;;10.50;99.90;;;;;;4953036;28;20133;-35
2022/02/04 12:07:45;;;;;;;3.35;3.05;;;10.50;99.90;;;;;;5027159;28;20798;-34
2022/02/04 12:10:13;;;;;;;3.28;2.97;;;10.50;99.90;;;;;;5026353;28;20021;-34
2022/02/04 12:15:31;;;;;;;3.72;2.97;;;10.40;99.90;;;;;;5024815;28;20045;-35
2022/02/04 12:18:18;;;;;;;4.00;3.03;;;10.40;99.90;;;;;;4971018;28;20052;-33
2022/02/04 12:20:46;;;;;;;3.67;2.67;;;10.40;99.90;;;;;;5026254;28;20083;-35
2022/02/04 12:23:27;;;;;;;3.30;2.97;;;10.40;99.90;;;;;;5026343;28;20048;-37
2022/02/04 12:26:04;;;;;;;3.17;2.42;;;10.40;99.90;;;;;;5023198;28;20033;-35
2022/02/04 12:28:51;;;;;;;5.07;3.55;;;10.40;99.90;;;;;;5025466;28;20038;-34
2022/02/04 12:31:21;;;;;;;2.92;2.70;;;10.40;99.90;;;;;;5024383;28;20035;-36
2022/02/04 12:33:51;;;;;;;4.05;3.00;;;10.40;99.90;;;;;;5025200;28;20041;-34
2022/02/04 12:36:26;;;;;;;2.78;2.40;;;10.40;99.90;;;;;;5025245;28;20029;-35
2022/02/04 12:38:55;;;;;;;3.10;2.70;;;10.40;99.90;;;;;;5025436;28;20087;-33
2022/02/04 12:41:28;;;;;;;2.53;2.33;;;10.40;99.90;;;;;;5020255;28;20014;-33
2022/02/04 12:43:57;;;;;;;3.47;2.80;;;10.50;99.90;;;;;;5025147;28;20456;-34
2022/02/04 12:46:24;;;;;;;3.88;3.35;;;10.50;99.90;;;;;;5024077;28;20106;-35
2022/02/04 12:49:06;;;;;;;3.95;2.97;;;10.40;99.90;;;;;;5025610;28;20049;-34
2022/02/04 12:52:22;;;;;;;3.40;3.10;;;10.30;99.90;;;;;;5025660;28;20052;-35
2022/02/04 12:54:29;;;;;;;6.13;4.30;;;10.30;99.90;;;;;;5011856;28;20037;-35
2022/02/04 12:59:55;;;;;;;4.60;3.97;;;10.20;99.90;;;;;;5025923;28;20068;-34
2022/02/04 13:02:43;;;;;;;4.72;4.10;;;10.20;99.90;;;;;;5025387;28;20047;-34
2022/02/04 13:07:49;;;;;;;3.70;3.17;;;10.10;99.90;;;;;;5025949;28;20477;-35
2022/02/04 13:10:24;;;;;;;3.88;3.47;;;10.10;99.90;;;;;;5025039;28;20112;-35
2022/02/04 13:13:08;;;;;;;3.30;3.00;;;10.10;99.90;;;;;;5025576;28;20080;-34
2022/02/04 13:15:36;;;;;;;3.42;3.13;;;10.10;99.90;;;;;;5024835;28;20855;-35
2022/02/04 13:18:10;;;;;;;3.97;3.45;;;10.10;99.90;;;;;;5014318;28;20065;-35
2022/02/04 13:20:43;;;;;;;4.40;3.80;;;10.10;99.90;;;;;;5026266;28;20021;-34
2022/02/04 13:23:23;;;;;;;3.58;3.28;;;10.00;99.90;;;;;;5024400;28;20111;-36
2022/02/04 13:25:57;;;;;;;5.10;3.17;;;10.10;99.90;;;;;;5025283;28;20057;-35
2022/02/04 13:28:27;;;;;;;3.40;3.10;;;10.00;99.90;;;;;;5014656;28;20034;-36
2022/02/04 13:31:00;;;;;;;4.00;3.00;;;10.00;99.90;;;;;;5025109;28;20394;-33
2022/02/04 13:33:38;;;;;;;4.07;2.95;;;10.00;99.90;;;;;;5025391;28;20087;-36
2022/02/04 13:39:08;;;;;;;3.35;3.05;;;9.90;99.90;;;;;;5016395;28;20041;-35
2022/02/04 13:44:31;;;;;;;3.35;3.05;;;9.90;99.90;;;;;;5025963;28;20473;-34
2022/02/04 13:47:17;;;;;;;3.90;2.80;;;9.80;99.90;;;;;;5024776;28;20735;-35
2022/02/04 13:55:32;;;;;;;4.30;3.20;;;9.50;99.90;;;;;;5025734;28;20037;-34
2022/02/04 13:58:19;;;;;;;6.15;3.67;;;9.40;99.90;;;;;;5025602;28;20032;-35
2022/02/04 14:01:09;;;;;;;6.15;4.03;;;9.30;99.90;;;;;;5005191;28;20052;-34
2022/02/04 14:03:45;;;;;;;5.60;3.85;;;9.20;99.90;;;;;;5022526;28;20693;-35
2022/02/04 14:06:17;;;;;;;5.15;4.18;;;9.10;99.90;;;;;;5025063;28;20048;-34
2022/02/04 14:11:26;;;;;;;5.18;3.78;;;9.00;99.90;;;;;;5025471;28;20472;-36
2022/02/04 14:13:53;;;;;;;6.65;4.50;;;9.00;99.90;;;;;;5024807;28;20110;-35
2022/02/04 14:16:20;;;;;;;5.85;4.97;;;9.00;99.90;;;;;;5028160;28;20037;-36
2022/02/04 14:18:47;;;;;;;6.10;4.93;;;8.90;99.90;;;;;;5028490;28;20033;-34
2022/02/04 14:21:12;;;;;;;6.72;5.18;;;8.80;99.90;;;;;;5028410;28;20033;-36
2022/02/04 14:23:40;;;;;;;5.78;4.72;;;8.80;99.90;;;;;;5028499;28;20099;-36
2022/02/04 14:26:13;;;;;;;6.90;5.35;;;8.80;99.90;;;;;;5028762;28;20099;-35
2022/02/04 14:28:49;;;;;;;6.95;5.22;;;8.70;99.90;;;;;;5028014;28;20029;-34
2022/02/04 14:31:26;;;;;;;5.97;4.82;;;8.70;99.90;;;;;;5028514;28;20029;-35
2022/02/04 14:36:53;;;;;;;9.55;5.70;;;8.70;99.90;;;;;;5027646;28;20137;-36
2022/02/04 14:50:54;;;;;;;4.22;3.15;;;8.60;99.90;;;;;;5026170;28;20095;-34
2022/02/04 15:03:41;;;;;;;2.03;0.57;;;7.10;99.90;;;;;;5027112;28;20053;-35
2022/02/04 15:06:13;;;;;;;1.00;0.50;;;6.80;99.90;;;;;;5028862;28;20029;-35
2022/02/04 15:08:40;;;;;;;1.25;0.95;;;6.50;99.90;;;;;;5029025;28;20116;-34
2022/02/04 15:11:19;;;;;;;0.50;0.47;;;6.30;99.90;;;;;;5027635;28;20404;-34
2022/02/04 15:13:47;;;;;;;1.10;0.50;;;6.10;99.90;;;;;;5028381;28;20100;-42
2022/02/04 15:16:13;;;;;;;0.50;0.50;;;5.90;99.90;;;;;;5026819;28;20376;-42
2022/02/04 15:18:40;;;;;;;1.38;0.80;;;5.70;99.90;;;;;;5027822;28;20033;-43
2022/02/04 15:21:14;;;;;;;0.95;0.40;;;5.50;99.90;;;;;;5027817;28;20014;-43
2022/02/04 15:23:41;;;;;;;0.40;0.40;;;5.40;99.90;;;;;;5027656;28;20201;-43
2022/02/04 15:26:09;;;;;;;0.45;0.40;;;5.20;99.90;;;;;;5027065;28;20022;-44
2022/02/04 15:31:01;;;;;;;1.75;0.40;;;5.20;99.90;;;;;;5027239;28;20824;-44
2022/02/04 15:33:30;;;;;;;0.40;0.40;;;5.10;99.90;;;;;;5027615;28;20458;-43
2022/02/04 15:35:57;;;;;;;0.43;0.43;;;5.00;99.90;;;;;;5029779;28;20083;-43
2022/02/04 15:38:25;;;;;;;0.60;0.60;;;5.10;99.90;;;;;;5025632;28;20030;-43
2022/02/04 15:40:53;;;;;;;0.70;0.70;;;5.10;99.90;;;;;;5026044;28;20084;-43
2022/02/04 15:43:19;;;;;;;0.80;0.70;;;5.10;99.90;;;;;;5023414;28;20475;-44
2022/02/04 15:51:31;;;;;;;0.70;0.70;;;5.10;99.90;;;;;;4981195;28;20033;-43
2022/02/04 15:54:14;;;;;;;0.70;0.70;;;5.10;99.90;;;;;;5026352;28;20037;-43
2022/02/04 15:59:29;;;;;;;0.82;0.73;;;5.10;99.90;;;;;;5022902;28;20022;-43
2022/02/04 16:04:43;;;;;;;1.60;0.98;;;5.10;99.90;;;;;;5024279;28;20052;-44
2022/02/04 16:07:09;;;;;;;0.90;0.90;;;5.20;99.90;;;;;;5015729;28;20026;-42
2022/02/04 16:09:35;;;;;;;0.93;0.93;;;5.10;99.90;;;;;;5022970;28;20095;-43
2022/02/04 16:12:25;;;;;;;0.75;0.75;;;5.10;99.90;;;;;;5026897;28;20048;-42
2022/02/04 16:15:02;;;;;;;1.27;1.17;;;5.10;99.90;;;;;;5025965;28;20100;-43
2022/02/04 16:17:32;;;;;;;0.90;0.90;;;5.10;99.90;;;;;;5026263;28;20399;-43
2022/02/04 16:20:24;;;;;;;1.17;1.17;;;5.20;99.90;;;;;;5026628;28;20052;-43
2022/02/04 16:23:03;;;;;;;1.85;1.48;;;5.20;99.90;;;;;;5026473;28;20037;-44
2022/02/04 16:25:43;;;;;;;1.23;1.13;;;5.10;99.90;;;;;;5026440;28;20373;-44
2022/02/04 16:30:57;;;;;;;1.17;1.08;;;5.10;99.90;;;;;;4965939;28;20131;-42
2022/02/04 16:33:23;;;;;;;2.17;1.10;;;5.10;99.90;;;;;;5022164;28;20061;-43
2022/02/04 16:35:48;;;;;;;1.05;1.00;;;5.10;99.90;;;;;;5025447;28;20061;-44
2022/02/04 16:38:18;;;;;;;1.23;1.20;;;5.20;99.90;;;;;;5024515;28;20044;-42
2022/02/04 16:40:46;;;;;;;1.38;1.00;;;5.20;99.90;;;;;;5025682;28;20033;-44
2022/02/04 16:43:14;;;;;;;1.25;1.00;;;5.20;99.90;;;;;;5025780;28;20038;-43
2022/02/04 16:45:40;;;;;;;3.80;1.00;;;5.10;99.90;;;;;;5026940;28;20127;-43
2022/02/04 16:48:05;;;;;;;2.58;1.00;;;5.10;99.90;;;;;;5025547;28;20108;-43
2022/02/04 16:50:31;;;;;;;0.88;0.80;;;5.10;99.90;;;;;;5025776;28;20065;-43
2022/02/04 16:52:57;;;;;;;2.15;0.73;;;5.00;99.90;;;;;;5025960;28;20083;-43
2022/02/04 16:55:25;;;;;;;2.67;1.10;;;5.00;99.90;;;;;;5024938;28;20384;-43
2022/02/04 16:57:51;;;;;;;1.48;0.90;;;4.90;99.90;;;;;;5026132;28;20022;-43
2022/02/04 17:00:22;;;;;;;1.05;0.80;;;4.90;99.90;;;;;;5025294;28;20037;-44
2022/02/04 17:02:53;;;;;;;1.52;0.80;;;4.90;99.90;;;;;;5025261;28;20057;-44
2022/02/04 17:05:25;;;;;;;2.15;0.90;;;4.90;99.90;;;;;;5025340;28;20037;-43
2022/02/04 17:07:55;;;;;;;2.05;1.00;;;4.90;99.90;;;;;;5025436;28;20021;-43
2022/02/04 17:10:29;;;;;;;1.60;0.98;;;5.00;99.90;;;;;;5021495;28;20029;-43
2022/02/04 17:13:01;;;;;;;0.80;0.80;;;5.00;99.90;;;;;;5026368;28;20026;-44
2022/02/04 17:15:31;;;;;;;1.00;1.00;;;5.00;99.90;;;;;;5025014;28;20022;-43
2022/02/04 17:17:58;;;;;;;3.33;1.15;;;5.10;99.90;;;;;;5025585;28;20022;-43
2022/02/04 17:20:25;;;;;;;2.22;1.73;;;5.00;99.90;;;;;;5026197;28;20108;-44
2022/02/04 17:22:52;;;;;;;1.92;1.40;;;5.00;99.90;;;;;;5025736;28;20022;-44
2022/02/04 17:25:25;;;;;;;1.70;1.40;;;5.00;99.90;;;;;;5026285;28;20027;-44
2022/02/04 17:27:51;;;;;;;3.25;2.15;;;5.00;99.90;;;;;;5027226;28;20037;-43
2022/02/04 17:30:17;;;;;;;3.33;2.30;;;5.10;99.90;;;;;;5024997;28;20120;-44
2022/02/04 17:32:44;;;;;;;4.47;3.30;;;5.10;99.90;;;;;;5026850;28;20124;-43
2022/02/04 17:35:12;;;;;;;6.72;2.92;;;5.00;99.90;;;;;;5026925;28;20038;-44
2022/02/04 17:37:39;;;;;;;2.50;1.95;;;5.00;99.90;;;;;;5024716;28;20441;-44
2022/02/04 17:40:09;;;;;;;1.90;1.70;;;4.90;99.90;;;;;;5025836;28;20477;-43
2022/02/04 17:42:37;;;;;;;2.83;1.70;;;4.90;99.90;;;;;;5025886;28;20102;-43
2022/02/04 17:45:05;;;;;;;2.28;1.63;;;4.80;99.90;;;;;;5025659;28;20041;-44
2022/02/04 17:47:31;;;;;;;3.60;1.70;;;4.70;99.90;;;;;;5026198;28;20020;-43
2022/02/04 17:50:02;;;;;;;3.25;1.40;;;4.70;99.90;;;;;;5030408;28;20109;-44
2022/02/04 17:52:42;;;;;;;1.98;1.25;;;4.60;99.90;;;;;;5027843;28;20025;-43
2022/02/04 17:55:14;;;;;;;2.65;1.40;;;4.60;99.90;;;;;;5029206;28;20026;-43
2022/02/04 18:05:17;;;;;;;2.40;1.50;;;4.60;99.90;;;;;;5028880;28;20053;-42
2022/02/04 18:08:23;;;;;;;4.43;1.40;;;4.50;99.90;;;;;;5029171;28;20045;-45
2022/02/04 18:10:49;;;;;;;3.42;1.50;;;4.50;99.90;;;;;;5029041;28;20487;-44
2022/02/04 18:13:16;;;;;;;4.55;1.38;;;4.50;99.90;;;;;;5028418;28;20037;-44
2022/02/04 18:15:42;;;;;;;5.70;1.80;;;4.50;99.90;;;;;;5029597;28;20033;-43
2022/02/04 18:18:12;;;;;;;4.95;1.67;;;4.60;99.90;;;;;;5029063;28;20022;-43
2022/02/04 18:20:38;;;;;;;3.00;1.30;;;4.60;99.90;;;;;;5027970;28;20026;-44
2022/02/04 18:23:04;;;;;;;4.60;1.50;;;4.70;99.90;;;;;;5029081;28;20095;-43
2022/02/04 18:25:30;;;;;;;3.03;1.50;;;4.70;99.90;;;;;;5028238;28;20025;-44
2022/02/04 18:27:57;;;;;;;5.20;1.75;;;4.70;99.90;;;;;;5028044;28;20018;-43
2022/02/04 18:30:23;;;;;;;4.18;1.40;;;4.80;99.90;;;;;;5027423;28;20031;-43
2022/02/04 18:32:49;;;;;;;5.50;1.92;;;4.80;99.90;;;;;;5028473;28;20041;-44
2022/02/04 18:35:17;;;;;;;4.75;1.83;;;4.80;99.90;;;;;;5027656;28;20064;-45
2022/02/04 18:37:50;;;;;;;4.72;2.20;;;4.70;99.90;;;;;;5028531;28;20025;-43
2022/02/04 18:40:52;;;;;;;7.80;2.03;;;4.70;99.90;;;;;;5027132;28;20025;-43
2022/02/04 18:43:25;;;;;;;7.68;2.65;;;4.60;99.90;;;;;;5027275;28;20511;-42
2022/02/04 18:46:05;;;;;;;6.28;2.30;;;4.60;99.90;;;;;;5029158;28;20025;-43
2022/02/04 18:48:42;;;;;;;5.35;2.40;;;4.60;99.90;;;;;;5026614;28;20056;-44
2022/02/04 18:53:58;;;;;;;5.38;2.55;;;4.70;99.90;;;;;;5025959;28;20045;-44
2022/02/04 18:59:10;;;;;;;7.70;2.75;;;4.80;99.90;;;;;;5026366;28;20032;-42
2022/02/04 19:01:35;;;;;;;4.45;2.03;;;4.80;99.90;;;;;;5026283;28;20053;-44
2022/02/04 19:04:05;;;;;;;6.60;2.20;;;4.70;99.90;;;;;;5027985;28;20029;-43
2022/02/04 19:06:39;;;;;;;8.77;2.80;;;4.80;99.90;;;;;;5027102;28;20604;-44
2022/02/04 19:09:06;;;;;;;6.60;2.78;;;4.70;99.90;;;;;;5027597;28;20051;-44
2022/02/04 19:11:55;;;;;;;7.13;2.75;;;4.80;99.90;;;;;;5027553;28;20022;-43
2022/02/04 19:14:43;;;;;;;7.18;2.70;;;4.80;99.90;;;;;;5026656;28;20044;-43
2022/02/04 19:17:28;;;;;;;7.05;2.85;;;4.80;99.90;;;;;;5027296;28;20025;-43
2022/02/04 19:20:08;;;;;;;7.97;2.97;;;4.80;99.90;;;;;;5025535;28;20459;-43